Time;durP1;ratioP1;P1;durP2;ratioP2;P2;SDS_P1;SDS_P2;PMS_P1;PMS_P2;Temp;Humidity;BMP_temperature;BMP_pressure;BME280_temperature;BME280_humidity;BME280_pressure;Samples;Min_cycle;Max_cycle;Signal;HPM_P1;HPM_P2
2022/05/09 00:01:13;;;;;;;16.92;4.40;;;6.50;99.90;;;;;;5072470;28;20135;-75
2022/05/09 00:03:40;;;;;;;16.67;4.60;;;6.50;99.90;;;;;;5094872;28;20410;-75
2022/05/09 00:06:05;;;;;;;17.40;4.40;;;6.80;99.90;;;;;;5094716;28;20040;-76
2022/05/09 00:08:31;;;;;;;24.70;5.03;;;6.50;99.90;;;;;;5073957;28;20036;-75
2022/05/09 00:10:56;;;;;;;27.13;5.13;;;6.50;99.90;;;;;;5093430;28;20039;-75
2022/05/09 00:13:22;;;;;;;17.08;4.15;;;6.50;99.90;;;;;;5076908;28;20046;-75
2022/05/09 00:15:50;;;;;;;18.83;4.35;;;6.50;99.90;;;;;;5092445;28;20035;-76
2022/05/09 00:18:17;;;;;;;18.30;4.55;;;6.50;99.90;;;;;;5095506;28;20130;-76
2022/05/09 00:20:43;;;;;;;25.20;4.95;;;6.40;99.90;;;;;;5079986;28;20048;-75
2022/05/09 00:23:08;;;;;;;20.13;4.78;;;6.50;99.90;;;;;;5093602;28;20169;-75
2022/05/09 00:25:34;;;;;;;20.83;4.63;;;6.40;99.90;;;;;;5071907;28;20035;-75
2022/05/09 00:28:00;;;;;;;21.08;4.43;;;6.50;99.90;;;;;;5072344;28;20134;-75
2022/05/09 00:30:25;;;;;;;16.20;4.20;;;6.50;99.90;;;;;;5088087;28;20119;-76
2022/05/09 00:32:51;;;;;;;17.00;4.28;;;6.50;99.90;;;;;;5075413;28;20055;-75
2022/05/09 00:35:17;;;;;;;20.30;5.03;;;6.40;99.90;;;;;;5097341;28;20047;-75
2022/05/09 00:37:43;;;;;;;25.70;5.78;;;6.60;99.90;;;;;;5070327;28;20070;-75
2022/05/09 00:40:12;;;;;;;21.00;4.80;;;6.40;99.90;;;;;;5073858;28;20032;-75
2022/05/09 00:42:48;;;;;;;16.60;4.30;;;6.30;99.90;;;;;;5075234;28;20032;-75
2022/05/09 00:45:14;;;;;;;24.95;4.95;;;6.40;99.90;;;;;;5097795;28;20047;-74
2022/05/09 00:47:40;;;;;;;21.83;4.75;;;6.30;99.90;;;;;;5087359;28;20055;-75
2022/05/09 00:50:08;;;;;;;17.08;4.22;;;6.30;99.90;;;;;;5096679;28;20067;-75
2022/05/09 00:53:04;;;;;;;17.13;4.68;;;6.40;99.90;;;;;;5088347;28;20044;-75
2022/05/09 00:55:47;;;;;;;16.75;4.70;;;6.30;99.90;;;;;;5096741;28;21654;-75
2022/05/09 00:58:38;;;;;;;15.10;4.20;;;6.40;99.90;;;;;;5109897;27;20056;-75
2022/05/09 01:01:07;;;;;;;19.83;4.47;;;6.30;99.90;;;;;;5087841;28;20543;-74
2022/05/09 01:03:46;;;;;;;18.95;4.97;;;6.30;99.90;;;;;;5080722;28;20052;-75
2022/05/09 01:06:15;;;;;;;21.90;5.50;;;6.20;99.90;;;;;;5090866;28;20059;-75
2022/05/09 01:08:41;;;;;;;14.10;4.55;;;6.20;99.90;;;;;;5096495;28;20105;-74
2022/05/09 01:11:10;;;;;;;20.40;5.13;;;6.20;99.90;;;;;;5082199;28;20144;-74
2022/05/09 01:13:42;;;;;;;18.52;5.28;;;6.20;99.90;;;;;;5078815;28;20028;-75
2022/05/09 01:16:09;;;;;;;18.02;4.93;;;6.20;99.90;;;;;;5091516;28;20461;-75
2022/05/09 01:18:36;;;;;;;21.27;4.70;;;6.10;99.90;;;;;;5087446;28;20126;-75
2022/05/09 01:21:22;;;;;;;19.20;5.07;;;6.10;99.90;;;;;;5089102;28;20185;-75
2022/05/09 01:23:47;;;;;;;25.60;5.15;;;6.10;99.90;;;;;;5082609;28;20048;-75
2022/05/09 01:26:13;;;;;;;19.60;5.38;;;6.10;99.90;;;;;;5094788;28;20051;-74
2022/05/09 01:28:41;;;;;;;16.27;5.30;;;6.00;99.90;;;;;;5092781;28;20528;-75
2022/05/09 01:31:11;;;;;;;24.50;5.32;;;6.00;99.90;;;;;;5094319;28;20447;-75
2022/05/09 01:33:40;;;;;;;22.52;5.18;;;6.00;99.90;;;;;;5069517;28;20040;-76
2022/05/09 01:36:16;;;;;;;20.70;5.40;;;6.00;99.90;;;;;;5091966;28;20237;-75
2022/05/09 01:39:04;;;;;;;27.13;6.00;;;6.00;99.90;;;;;;5074862;28;20051;-76
2022/05/09 01:41:45;;;;;;;17.52;5.40;;;5.90;99.90;;;;;;5093137;28;20043;-75
2022/05/09 01:44:15;;;;;;;15.93;4.63;;;6.00;99.90;;;;;;5091714;28;20101;-75
2022/05/09 01:49:31;;;;;;;18.33;5.30;;;6.00;99.90;;;;;;5070609;28;20929;-75
2022/05/09 01:52:03;;;;;;;17.45;4.90;;;6.00;99.90;;;;;;5087599;28;20056;-75
2022/05/09 01:54:29;;;;;;;20.83;4.70;;;5.90;99.90;;;;;;5092226;28;20051;-75
2022/05/09 01:56:55;;;;;;;27.58;5.63;;;5.80;99.90;;;;;;5093545;28;20039;-75
2022/05/09 01:59:21;;;;;;;24.15;5.05;;;5.90;99.90;;;;;;5090218;28;20126;-75
2022/05/09 02:01:49;;;;;;;20.48;4.90;;;5.90;99.90;;;;;;5093288;28;20104;-75
2022/05/09 02:04:15;;;;;;;18.10;4.78;;;5.80;99.90;;;;;;5092237;28;20554;-75
2022/05/09 02:06:42;;;;;;;19.10;4.30;;;5.80;99.90;;;;;;5072487;28;20525;-75
2022/05/09 02:09:11;;;;;;;18.80;3.67;;;5.80;99.90;;;;;;5071340;28;20036;-75
2022/05/09 02:11:36;;;;;;;15.88;4.00;;;5.80;99.90;;;;;;5092979;28;20398;-75
2022/05/09 02:14:06;;;;;;;19.55;4.57;;;5.80;99.90;;;;;;5093820;28;20040;-75
2022/05/09 02:16:32;;;;;;;26.63;4.43;;;5.70;99.90;;;;;;5078455;28;20042;-77
2022/05/09 02:18:58;;;;;;;18.58;3.92;;;5.70;99.90;;;;;;5097396;28;20432;-75
2022/05/09 02:21:23;;;;;;;29.92;4.80;;;5.70;99.90;;;;;;5087532;28;20181;-75
2022/05/09 02:23:49;;;;;;;19.85;4.40;;;5.70;99.90;;;;;;5088633;28;20050;-76
2022/05/09 02:26:15;;;;;;;17.05;4.25;;;5.70;99.90;;;;;;5111810;28;20245;-75
2022/05/09 02:28:41;;;;;;;24.30;4.55;;;5.80;99.90;;;;;;5074092;28;20127;-75
2022/05/09 02:31:08;;;;;;;21.40;4.35;;;5.70;99.90;;;;;;5093875;28;20538;-75
2022/05/09 02:33:33;;;;;;;19.05;3.63;;;5.60;99.90;;;;;;5076087;28;20094;-75
2022/05/09 02:36:02;;;;;;;20.50;4.10;;;5.60;99.90;;;;;;5078053;28;20071;-75
2022/05/09 02:42:09;;;;;;;22.08;4.68;;;5.60;99.90;;;;;;5104390;28;20043;-74
2022/05/09 02:44:40;;;;;;;21.08;4.15;;;5.50;99.90;;;;;;5078915;28;20047;-75
2022/05/09 02:47:06;;;;;;;28.70;5.13;;;5.50;99.90;;;;;;5086134;28;20535;-75
2022/05/09 02:49:32;;;;;;;25.58;5.13;;;5.50;99.90;;;;;;5096417;28;20044;-75
2022/05/09 02:51:57;;;;;;;13.18;3.90;;;5.60;99.90;;;;;;5095080;28;20047;-75
2022/05/09 02:54:23;;;;;;;18.52;4.50;;;5.50;99.90;;;;;;5091882;28;20055;-75
2022/05/09 02:56:48;;;;;;;20.13;4.10;;;5.50;99.90;;;;;;5074734;28;20044;-76
2022/05/09 02:59:14;;;;;;;18.15;4.15;;;5.50;99.90;;;;;;5071701;28;20078;-76
2022/05/09 03:01:40;;;;;;;24.52;4.20;;;5.50;99.90;;;;;;5093998;28;20382;-75
2022/05/09 03:06:49;;;;;;;22.05;5.28;;;5.50;99.90;;;;;;5092937;28;20052;-75
2022/05/09 03:09:15;;;;;;;18.23;5.00;;;5.60;99.90;;;;;;5096697;28;20032;-76
2022/05/09 03:11:40;;;;;;;18.83;4.93;;;5.50;99.90;;;;;;5096448;28;20043;-76
2022/05/09 03:14:06;;;;;;;17.52;4.13;;;5.50;99.90;;;;;;5091644;28;20040;-75
2022/05/09 03:16:32;;;;;;;28.33;4.70;;;5.50;99.90;;;;;;5092388;28;20113;-76
2022/05/09 03:18:57;;;;;;;17.00;4.45;;;5.50;99.90;;;;;;5076773;28;20032;-75
2022/05/09 03:21:23;;;;;;;24.13;5.13;;;5.50;99.90;;;;;;5094408;28;20036;-76
2022/05/09 03:23:49;;;;;;;19.67;4.85;;;5.40;99.90;;;;;;5076463;28;20052;-75
2022/05/09 03:26:15;;;;;;;22.33;4.85;;;5.50;99.90;;;;;;5096524;28;20101;-76
2022/05/09 03:28:41;;;;;;;22.63;4.88;;;5.50;99.90;;;;;;5097202;28;20379;-76
2022/05/09 03:31:07;;;;;;;17.20;4.35;;;5.50;99.90;;;;;;5095673;28;20071;-75
2022/05/09 03:33:33;;;;;;;20.00;5.10;;;5.50;99.90;;;;;;5071787;28;20059;-75
2022/05/09 03:36:01;;;;;;;21.25;4.35;;;5.70;99.90;;;;;;5089769;28;20039;-75
2022/05/09 03:38:27;;;;;;;26.88;4.75;;;5.40;99.90;;;;;;5072361;28;20094;-75
2022/05/09 03:40:53;;;;;;;23.15;4.57;;;5.30;99.90;;;;;;5088209;28;20043;-76
2022/05/09 03:43:18;;;;;;;20.75;5.10;;;5.40;99.90;;;;;;5091960;28;20044;-76
2022/05/09 03:45:47;;;;;;;15.43;4.63;;;5.30;99.90;;;;;;5078718;28;20062;-76
2022/05/09 03:48:13;;;;;;;24.67;4.93;;;5.30;99.90;;;;;;5079972;28;20069;-75
2022/05/09 03:50:39;;;;;;;23.67;5.05;;;5.30;99.90;;;;;;5097098;28;20031;-75
2022/05/09 03:53:05;;;;;;;19.17;4.88;;;5.30;99.90;;;;;;5072542;28;20040;-75
2022/05/09 03:55:33;;;;;;;19.70;4.90;;;5.40;99.90;;;;;;5077785;28;20036;-75
2022/05/09 03:57:59;;;;;;;21.88;5.55;;;5.30;99.90;;;;;;5075806;28;20036;-75
2022/05/09 04:00:27;;;;;;;18.58;5.05;;;5.40;99.90;;;;;;5094761;28;20108;-75
2022/05/09 04:02:53;;;;;;;21.50;5.55;;;5.40;99.90;;;;;;5080703;28;20040;-75
2022/05/09 04:05:20;;;;;;;18.73;5.05;;;5.40;99.90;;;;;;5083858;28;20054;-75
2022/05/09 04:08:10;;;;;;;18.92;4.57;;;5.30;99.90;;;;;;5114299;27;20146;-74
2022/05/09 04:10:37;;;;;;;18.90;4.45;;;5.30;99.90;;;;;;5101881;28;20043;-74
2022/05/09 04:13:04;;;;;;;23.92;5.55;;;5.30;99.90;;;;;;5091289;28;20124;-75
2022/05/09 04:18:17;;;;;;;18.80;5.55;;;5.40;99.90;;;;;;5088920;28;20054;-76
2022/05/09 04:20:47;;;;;;;18.63;5.20;;;5.40;99.90;;;;;;5071267;28;20067;-75
2022/05/09 04:23:13;;;;;;;18.38;5.45;;;5.50;99.90;;;;;;5093193;28;20051;-76
2022/05/09 04:25:38;;;;;;;21.20;5.40;;;5.50;99.90;;;;;;5073589;28;20031;-75
2022/05/09 04:28:07;;;;;;;19.98;4.97;;;5.50;99.90;;;;;;5073340;28;20093;-75
2022/05/09 04:30:35;;;;;;;21.15;5.60;;;5.60;99.90;;;;;;5088530;28;20200;-76
2022/05/09 04:33:01;;;;;;;22.25;6.13;;;5.60;99.90;;;;;;5069449;28;21329;-77
2022/05/09 04:35:28;;;;;;;25.55;6.07;;;5.60;99.90;;;;;;5097909;27;20044;-75
2022/05/09 04:37:54;;;;;;;21.67;5.10;;;5.70;99.90;;;;;;5073299;28;20097;-76
2022/05/09 04:40:29;;;;;;;28.50;6.20;;;5.80;99.90;;;;;;5075882;28;20062;-76
2022/05/09 04:42:56;;;;;;;19.90;6.43;;;5.80;99.90;;;;;;5081435;28;20380;-76
2022/05/09 04:45:22;;;;;;;26.30;6.10;;;5.90;99.90;;;;;;5094467;28;20051;-76
2022/05/09 04:47:50;;;;;;;24.23;6.18;;;6.00;99.90;;;;;;5074294;28;20143;-77
2022/05/09 04:50:19;;;;;;;22.55;6.45;;;6.10;99.90;;;;;;5076035;28;20036;-77
2022/05/09 04:52:45;;;;;;;18.27;5.60;;;6.20;99.90;;;;;;5088909;28;20052;-77
2022/05/09 04:55:12;;;;;;;27.73;6.60;;;6.30;99.90;;;;;;5097788;28;20044;-77
2022/05/09 04:57:39;;;;;;;23.42;5.85;;;6.40;99.90;;;;;;5076957;28;20046;-76
2022/05/09 05:00:07;;;;;;;28.95;6.95;;;6.40;99.90;;;;;;5088672;28;20118;-76
2022/05/09 05:02:34;;;;;;;24.77;6.88;;;6.50;99.90;;;;;;5092221;28;20054;-76
2022/05/09 05:05:00;;;;;;;26.88;6.90;;;6.70;99.90;;;;;;5077748;28;20032;-75
2022/05/09 05:07:27;;;;;;;35.58;7.30;;;6.90;99.90;;;;;;5091665;28;20112;-77
2022/05/09 05:09:53;;;;;;;34.40;7.95;;;6.80;99.90;;;;;;5066795;28;20060;-77
2022/05/09 05:12:19;;;;;;;15.65;3.85;;;6.90;99.90;;;;;;5094919;28;21204;-76
2022/05/09 05:14:44;;;;;;;19.20;4.25;;;7.30;99.90;;;;;;5086965;28;20036;-75
2022/05/09 05:17:11;;;;;;;19.42;4.57;;;8.00;99.90;;;;;;5092527;28;20040;-76
2022/05/09 05:19:42;;;;;;;17.48;3.47;;;8.70;99.90;;;;;;5089587;28;20032;-76
2022/05/09 05:22:09;;;;;;;17.63;4.18;;;9.30;99.90;;;;;;5071839;28;20111;-75
2022/05/09 05:24:37;;;;;;;24.35;5.25;;;9.60;99.90;;;;;;5071980;28;20056;-76
2022/05/09 05:27:04;;;;;;;17.00;5.00;;;9.90;99.90;;;;;;5093878;28;20051;-76
2022/05/09 05:29:29;;;;;;;23.13;4.80;;;10.10;99.90;;;;;;5086568;28;20147;-75
2022/05/09 05:31:55;;;;;;;31.25;6.70;;;10.70;99.90;;;;;;5092530;28;20126;-78
2022/05/09 05:34:21;;;;;;;26.38;6.40;;;10.10;99.90;;;;;;5096931;28;20036;-76
2022/05/09 05:36:46;;;;;;;30.80;6.55;;;9.60;99.90;;;;;;5083507;28;20630;-74
2022/05/09 05:39:15;;;;;;;32.28;6.75;;;9.30;99.90;;;;;;5098614;28;20054;-77
2022/05/09 05:41:43;;;;;;;31.23;7.30;;;9.20;99.90;;;;;;5071392;28;20542;-77
2022/05/09 05:44:11;;;;;;;17.33;5.80;;;9.10;99.90;;;;;;5086980;28;20082;-77
2022/05/09 05:46:40;;;;;;;32.75;7.57;;;9.00;99.90;;;;;;5085385;28;20123;-76
2022/05/09 05:49:07;;;;;;;30.05;7.38;;;9.00;99.90;;;;;;5073025;28;20044;-77
2022/05/09 05:51:36;;;;;;;23.25;7.05;;;8.90;99.90;;;;;;5068043;28;20052;-76
2022/05/09 05:54:05;;;;;;;28.73;7.57;;;9.10;99.90;;;;;;5092646;28;20043;-76
2022/05/09 05:56:32;;;;;;;27.42;6.55;;;9.00;99.90;;;;;;5069532;28;20055;-76
2022/05/09 05:58:58;;;;;;;23.40;6.18;;;9.10;99.90;;;;;;5069336;28;20068;-77
2022/05/09 06:01:24;;;;;;;28.23;6.63;;;9.10;99.90;;;;;;5087667;28;20192;-78
2022/05/09 06:03:49;;;;;;;25.95;7.50;;;9.10;99.90;;;;;;5090634;28;20108;-76
2022/05/09 06:06:15;;;;;;;33.58;7.10;;;9.30;99.90;;;;;;5067995;28;20074;-76
2022/05/09 06:08:43;;;;;;;25.42;6.72;;;9.30;99.90;;;;;;5074778;28;20047;-76
2022/05/09 06:11:10;;;;;;;20.67;6.15;;;9.30;99.90;;;;;;5083718;28;20048;-76
2022/05/09 06:13:36;;;;;;;29.98;6.72;;;9.40;99.90;;;;;;5097202;28;20100;-76
2022/05/09 06:16:02;;;;;;;20.42;6.45;;;9.50;99.90;;;;;;5071486;28;20052;-76
2022/05/09 06:18:28;;;;;;;25.40;7.32;;;9.50;99.90;;;;;;5088704;28;20130;-78
2022/05/09 06:20:54;;;;;;;21.55;6.90;;;9.60;99.90;;;;;;5067630;28;20055;-77
2022/05/09 06:23:21;;;;;;;24.35;6.75;;;9.60;99.90;;;;;;5069490;28;20107;-78
2022/05/09 06:25:48;;;;;;;28.20;7.32;;;9.70;99.90;;;;;;5071209;28;20048;-77
2022/05/09 06:28:15;;;;;;;27.58;7.28;;;9.80;99.90;;;;;;5070166;28;20036;-80
2022/05/09 06:30:42;;;;;;;35.17;8.40;;;9.80;99.90;;;;;;5070337;28;20333;-79
2022/05/09 06:33:09;;;;;;;18.90;7.13;;;9.90;99.90;;;;;;5089430;28;20040;-78
2022/05/09 06:35:45;;;;;;;26.70;7.53;;;9.90;99.90;;;;;;5085672;28;20062;-77
2022/05/09 06:38:15;;;;;;;28.40;7.22;;;10.00;99.90;;;;;;5085417;28;20040;-80
2022/05/09 06:40:41;;;;;;;23.58;7.75;;;10.00;99.90;;;;;;5072216;28;20028;-78
2022/05/09 06:43:08;;;;;;;27.95;8.30;;;10.10;99.90;;;;;;5084165;28;20101;-81
2022/05/09 06:45:34;;;;;;;25.67;7.65;;;10.20;99.90;;;;;;5087917;28;20110;-78
2022/05/09 06:48:01;;;;;;;22.38;7.32;;;10.30;99.90;;;;;;5088459;28;20123;-77
2022/05/09 06:50:29;;;;;;;27.25;7.72;;;10.30;99.90;;;;;;5084435;28;20040;-77
2022/05/09 06:53:00;;;;;;;19.73;6.85;;;10.50;99.90;;;;;;5088243;28;20066;-80
2022/05/09 06:55:29;;;;;;;25.38;6.93;;;10.60;99.90;;;;;;5071725;28;20351;-79
2022/05/09 06:57:55;;;;;;;27.15;7.05;;;10.60;99.90;;;;;;5098534;28;20451;-77
2022/05/09 07:00:23;;;;;;;23.95;6.47;;;10.80;99.90;;;;;;5092605;28;20070;-75
2022/05/09 07:02:49;;;;;;;25.10;6.18;;;11.00;99.90;;;;;;5098254;28;20052;-74
2022/05/09 07:05:18;;;;;;;24.67;6.47;;;11.10;99.90;;;;;;5090613;28;20435;-77
2022/05/09 07:07:45;;;;;;;20.35;5.40;;;11.20;99.90;;;;;;5098079;28;20052;-77
2022/05/09 07:10:12;;;;;;;21.60;5.60;;;11.20;99.90;;;;;;5072908;28;20052;-78
2022/05/09 07:12:53;;;;;;;18.73;5.13;;;11.50;99.90;;;;;;5078718;28;20435;-77
2022/05/09 07:15:22;;;;;;;21.05;5.70;;;11.50;99.90;;;;;;5107206;28;20070;-77
2022/05/09 07:17:50;;;;;;;21.02;6.65;;;11.50;99.90;;;;;;5082612;28;20066;-78
2022/05/09 07:20:17;;;;;;;20.45;5.72;;;11.60;99.90;;;;;;5075610;28;20135;-77
2022/05/09 07:22:43;;;;;;;16.45;5.22;;;11.60;99.90;;;;;;5077987;28;20090;-77
2022/05/09 07:25:15;;;;;;;24.33;5.38;;;11.60;99.90;;;;;;5102363;28;20055;-78
2022/05/09 07:27:44;;;;;;;19.27;5.28;;;11.70;99.90;;;;;;5091615;28;20593;-78
2022/05/09 07:30:17;;;;;;;16.63;5.22;;;11.80;99.90;;;;;;5096415;28;20173;-78
2022/05/09 07:32:43;;;;;;;22.92;5.53;;;11.90;99.90;;;;;;5093240;28;20090;-79
2022/05/09 07:35:12;;;;;;;20.88;5.22;;;12.10;99.90;;;;;;5101346;28;20513;-78
2022/05/09 07:37:38;;;;;;;27.35;5.22;;;12.00;99.90;;;;;;5097676;28;20027;-79
2022/05/09 07:40:05;;;;;;;17.83;4.95;;;12.00;99.90;;;;;;5091182;28;20110;-79
2022/05/09 07:42:34;;;;;;;19.50;5.85;;;12.10;99.90;;;;;;5087884;28;20039;-78
2022/05/09 07:45:04;;;;;;;24.23;4.78;;;12.10;99.90;;;;;;5078545;28;20040;-77
2022/05/09 07:47:30;;;;;;;24.95;6.00;;;12.20;99.90;;;;;;5075012;28;20398;-79
2022/05/09 07:49:56;;;;;;;24.35;5.05;;;12.40;99.90;;;;;;5078662;28;20059;-80
2022/05/09 07:52:22;;;;;;;23.63;5.05;;;12.40;99.90;;;;;;5092074;28;20055;-79
2022/05/09 07:54:48;;;;;;;17.45;5.03;;;12.70;99.90;;;;;;5090023;28;20047;-78
2022/05/09 07:57:14;;;;;;;19.13;4.50;;;12.80;99.90;;;;;;5080538;28;20047;-80
2022/05/09 07:59:40;;;;;;;16.42;4.65;;;12.70;99.90;;;;;;5096344;28;20448;-81
2022/05/09 08:02:06;;;;;;;15.23;4.75;;;12.80;99.90;;;;;;5100323;28;20058;-79
2022/05/09 08:04:33;;;;;;;20.00;5.25;;;12.80;99.90;;;;;;5083011;28;20048;-79
2022/05/09 08:07:00;;;;;;;21.52;5.35;;;12.80;99.90;;;;;;5096271;28;20083;-78
2022/05/09 08:09:26;;;;;;;16.00;4.50;;;12.90;99.90;;;;;;5080115;28;20443;-80
2022/05/09 08:11:52;;;;;;;22.55;5.05;;;12.90;99.90;;;;;;5095501;28;20192;-79
2022/05/09 08:14:17;;;;;;;19.08;5.47;;;13.20;99.90;;;;;;5102779;28;20036;-78
2022/05/09 08:16:43;;;;;;;24.15;5.07;;;13.40;99.90;;;;;;5101669;28;20101;-79
2022/05/09 08:19:11;;;;;;;62.90;5.80;;;13.50;99.90;;;;;;5084875;28;20101;-75
2022/05/09 08:21:37;;;;;;;22.25;4.07;;;13.60;99.90;;;;;;5092640;28;20058;-73
2022/05/09 08:27:44;;;;;;;23.40;3.95;;;13.90;99.90;;;;;;5104849;28;20042;-73
2022/05/09 08:30:11;;;;;;;20.98;4.47;;;14.20;99.90;;;;;;5083022;28;20135;-73
2022/05/09 08:32:38;;;;;;;13.57;3.75;;;14.30;99.90;;;;;;5096318;28;20065;-74
2022/05/09 08:35:05;;;;;;;21.40;4.70;;;14.40;99.90;;;;;;5092410;28;20380;-74
2022/05/09 08:37:31;;;;;;;20.05;4.57;;;14.50;99.90;;;;;;5093693;28;20406;-74
2022/05/09 08:39:57;;;;;;;20.02;4.15;;;14.40;99.90;;;;;;5101164;28;20047;-74
2022/05/09 08:42:48;;;;;;;20.63;4.32;;;14.50;99.90;;;;;;5080197;28;20040;-74
2022/05/09 08:45:17;;;;;;;19.67;4.55;;;14.60;99.90;;;;;;5101974;28;20226;-75
2022/05/09 08:48:01;;;;;;;18.13;4.40;;;14.60;99.90;;;;;;5093772;28;20587;-74
2022/05/09 08:50:42;;;;;;;16.23;3.67;;;14.70;99.90;;;;;;5105081;28;20131;-74
2022/05/09 08:53:17;;;;;;;17.40;3.58;;;14.80;99.90;;;;;;5094306;28;20098;-74
2022/05/09 08:55:45;;;;;;;16.05;3.70;;;14.90;99.90;;;;;;5105627;28;20409;-75
2022/05/09 08:58:39;;;;;;;13.60;3.50;;;15.10;99.90;;;;;;5097558;28;20044;-75
2022/05/09 09:01:13;;;;;;;14.48;3.55;;;15.10;99.90;;;;;;5079801;28;20067;-75
2022/05/09 09:03:43;;;;;;;16.23;3.83;;;15.30;99.90;;;;;;5097279;28;20121;-75
2022/05/09 09:06:36;;;;;;;18.60;3.75;;;15.40;99.90;;;;;;5073904;28;20055;-75
2022/05/09 09:09:30;;;;;;;14.60;3.40;;;15.50;99.90;;;;;;5091996;28;20105;-75
2022/05/09 09:12:06;;;;;;;10.70;2.92;;;15.80;99.90;;;;;;5107532;28;20066;-75
2022/05/09 09:14:32;;;;;;;24.77;3.92;;;16.00;99.90;;;;;;5102835;28;20040;-75
2022/05/09 09:17:26;;;;;;;14.02;3.50;;;16.00;99.90;;;;;;5093191;28;20048;-75
2022/05/09 09:20:15;;;;;;;13.43;3.30;;;16.10;99.90;;;;;;5104550;28;20120;-76
2022/05/09 09:23:07;;;;;;;14.07;3.78;;;16.20;99.90;;;;;;5106936;28;20055;-76
2022/05/09 09:26:02;;;;;;;17.92;3.28;;;16.20;99.90;;;;;;5093394;28;20494;-75
2022/05/09 09:28:47;;;;;;;19.10;3.70;;;16.30;99.90;;;;;;5064174;28;20048;-78
2022/05/09 09:31:21;;;;;;;18.75;2.92;;;16.40;99.90;;;;;;5063357;28;20132;-76
2022/05/09 09:34:02;;;;;;;13.65;2.95;;;16.40;99.90;;;;;;5063411;28;20048;-75
2022/05/09 09:36:38;;;;;;;14.07;3.45;;;16.50;99.90;;;;;;5063608;28;20192;-74
2022/05/09 09:39:19;;;;;;;10.65;2.80;;;16.70;99.90;;;;;;5063610;28;20433;-75
2022/05/09 09:41:46;;;;;;;9.70;2.60;;;16.90;99.90;;;;;;5063438;28;20059;-75
2022/05/09 09:44:18;;;;;;;14.02;2.95;;;17.10;99.90;;;;;;5068860;28;20496;-75
2022/05/09 09:47:05;;;;;;;12.50;2.75;;;17.30;99.90;;;;;;5072349;28;20040;-75
2022/05/09 09:49:33;;;;;;;15.18;2.80;;;17.60;99.90;;;;;;5074353;28;20050;-74
2022/05/09 09:51:59;;;;;;;14.82;2.95;;;17.80;99.90;;;;;;5061888;28;20551;-73
2022/05/09 09:54:30;;;;;;;13.38;2.50;;;17.90;99.90;;;;;;5052668;28;20126;-76
2022/05/09 09:56:55;;;;;;;8.30;2.60;;;18.10;99.50;;;;;;5065150;28;20897;-75
2022/05/09 09:59:23;;;;;;;11.68;2.67;;;18.30;99.50;;;;;;5043823;28;20079;-75
2022/05/09 10:02:04;;;;;;;9.05;2.40;;;18.40;98.90;;;;;;5061818;28;20048;-75
2022/05/09 10:04:30;;;;;;;10.77;2.58;;;18.50;98.30;;;;;;5061529;28;20040;-75
2022/05/09 10:07:03;;;;;;;8.52;2.80;;;18.80;98.00;;;;;;5089305;28;20047;-75
2022/05/09 10:09:39;;;;;;;16.77;2.88;;;19.00;99.10;;;;;;5085361;28;20450;-75
2022/05/09 10:12:18;;;;;;;16.30;2.50;;;19.20;98.50;;;;;;5071667;28;20068;-75
2022/05/09 10:14:44;;;;;;;8.20;2.70;;;19.40;98.50;;;;;;5080946;28;20180;-74
2022/05/09 10:17:25;;;;;;;14.35;2.53;;;19.40;94.80;;;;;;5087718;28;20035;-74
2022/05/09 10:19:51;;;;;;;8.25;2.50;;;19.40;96.00;;;;;;5095285;28;20066;-74
2022/05/09 10:25:28;;;;;;;15.20;2.90;;;20.00;97.40;;;;;;5089921;28;20051;-74
2022/05/09 10:28:12;;;;;;;10.68;2.78;;;19.90;95.20;;;;;;5088937;28;20094;-75
2022/05/09 10:30:44;;;;;;;17.10;3.00;;;19.90;94.50;;;;;;5088926;28;20052;-75
2022/05/09 10:33:48;;;;;;;8.77;3.03;;;20.00;94.60;;;;;;5092260;28;20139;-75
2022/05/09 10:36:19;;;;;;;12.48;2.90;;;20.30;95.40;;;;;;5024391;28;20053;-77
2022/05/09 10:39:01;;;;;;;10.50;2.95;;;20.40;93.80;;;;;;5032394;28;20399;-76
2022/05/09 10:41:52;;;;;;;11.82;2.90;;;20.60;93.90;;;;;;5039122;28;20434;-77
2022/05/09 10:44:41;;;;;;;11.65;2.90;;;20.70;93.70;;;;;;5031140;28;20048;-75
2022/05/09 10:47:33;;;;;;;8.35;2.80;;;21.00;93.60;;;;;;5029814;28;20056;-76
2022/05/09 10:50:09;;;;;;;14.43;2.80;;;21.20;93.30;;;;;;5050582;28;20083;-76
2022/05/09 10:52:41;;;;;;;12.60;3.33;;;21.30;94.40;;;;;;5029842;28;20163;-77
2022/05/09 10:55:18;;;;;;;10.15;2.65;;;21.00;91.20;;;;;;5035010;28;20052;-76
2022/05/09 10:57:59;;;;;;;11.27;2.92;;;21.20;91.60;;;;;;5025098;28;20613;-79
2022/05/09 11:00:26;;;;;;;14.95;3.58;;;21.40;92.30;;;;;;5049294;28;20822;-78
2022/05/09 11:03:03;;;;;;;10.38;3.10;;;21.50;93.00;;;;;;5030326;28;20496;-78
2022/05/09 11:05:46;;;;;;;9.52;2.75;;;21.00;91.50;;;;;;5035243;28;20052;-77
2022/05/09 11:08:25;;;;;;;12.82;3.03;;;21.00;92.30;;;;;;5035190;28;20040;-77
2022/05/09 11:11:18;;;;;;;11.95;2.97;;;21.00;91.10;;;;;;5044801;28;20045;-77
2022/05/09 11:14:19;;;;;;;14.50;2.88;;;21.30;90.90;;;;;;5095320;27;20048;-75
2022/05/09 11:17:18;;;;;;;12.18;2.92;;;21.40;90.90;;;;;;5054983;28;20072;-74
2022/05/09 11:20:09;;;;;;;10.77;2.70;;;21.80;91.40;;;;;;5039122;28;20096;-77
2022/05/09 11:22:53;;;;;;;12.85;3.15;;;22.30;92.80;;;;;;5043254;28;20098;-77
2022/05/09 11:25:46;;;;;;;34.80;4.75;;;22.40;92.40;;;;;;5046983;28;20053;-76
2022/05/09 11:28:39;;;;;;;13.90;2.90;;;22.60;92.00;;;;;;5047576;28;20545;-77
2022/05/09 11:31:25;;;;;;;13.15;2.90;;;23.00;91.40;;;;;;5030438;28;20044;-77
2022/05/09 11:34:07;;;;;;;13.57;3.25;;;23.30;91.10;;;;;;5037787;28;20075;-76
2022/05/09 11:36:38;;;;;;;11.13;2.90;;;23.10;90.30;;;;;;5044409;28;20052;-76
2022/05/09 11:39:12;;;;;;;12.88;3.30;;;22.70;84.80;;;;;;5029784;28;20048;-75
2022/05/09 11:41:53;;;;;;;11.93;2.78;;;22.60;84.50;;;;;;5042646;28;20060;-76
2022/05/09 11:44:29;;;;;;;12.05;3.08;;;22.50;85.70;;;;;;5025822;28;20060;-75
2022/05/09 11:47:12;;;;;;;13.70;2.95;;;23.00;88.50;;;;;;5050452;28;20131;-75
2022/05/09 11:49:44;;;;;;;14.60;3.10;;;23.40;88.40;;;;;;5046518;28;20395;-74
2022/05/09 11:52:25;;;;;;;11.20;2.92;;;23.20;87.70;;;;;;5029324;28;20053;-74
2022/05/09 11:54:53;;;;;;;10.02;2.50;;;23.30;79.20;;;;;;5081760;28;20109;-74
2022/05/09 11:57:29;;;;;;;9.82;2.72;;;24.00;86.00;;;;;;5097829;28;20048;-74
2022/05/09 11:59:58;;;;;;;13.32;2.75;;;23.80;82.50;;;;;;5085783;28;20067;-74
2022/05/09 12:02:46;;;;;;;8.13;2.38;;;23.70;80.20;;;;;;5078795;28;20050;-75
2022/05/09 12:05:32;;;;;;;9.95;2.47;;;24.10;76.30;;;;;;5074895;28;20127;-75
2022/05/09 12:08:18;;;;;;;8.52;2.35;;;24.30;80.80;;;;;;5066208;28;20391;-75
2022/05/09 12:10:46;;;;;;;12.07;2.40;;;24.80;78.90;;;;;;5074157;28;20059;-75
2022/05/09 12:13:38;;;;;;;7.75;2.28;;;24.60;78.90;;;;;;5097628;28;20467;-75
2022/05/09 12:16:05;;;;;;;8.85;2.47;;;25.10;76.60;;;;;;5080710;28;20054;-74
2022/05/09 12:19:10;;;;;;;8.32;2.28;;;25.30;76.00;;;;;;5095260;28;20057;-75
2022/05/09 12:21:38;;;;;;;9.82;2.53;;;25.00;68.70;;;;;;5045222;28;20036;-75
2022/05/09 12:24:32;;;;;;;7.82;2.10;;;24.80;67.90;;;;;;5039341;28;20127;-75
2022/05/09 12:27:01;;;;;;;5.63;2.33;;;25.20;72.70;;;;;;5040325;28;20151;-75
2022/05/09 12:29:31;;;;;;;11.73;2.63;;;25.40;73.20;;;;;;5041024;28;20059;-75
2022/05/09 12:32:02;;;;;;;7.28;2.25;;;25.70;71.30;;;;;;5038424;28;20149;-75
2022/05/09 12:34:38;;;;;;;9.30;2.55;;;26.20;70.40;;;;;;5068820;28;20045;-75
2022/05/09 12:37:04;;;;;;;6.68;2.00;;;26.30;69.30;;;;;;5051668;28;20131;-75
2022/05/09 12:39:46;;;;;;;17.98;2.75;;;26.40;71.60;;;;;;5042693;28;20041;-76
2022/05/09 12:42:39;;;;;;;8.45;2.15;;;26.60;70.40;;;;;;5055265;28;20484;-75
2022/05/09 12:45:05;;;;;;;9.07;2.13;;;26.30;65.70;;;;;;5047467;28;20131;-76
2022/05/09 12:47:34;;;;;;;7.35;1.92;;;26.60;68.20;;;;;;5040925;28;20048;-77
2022/05/09 12:50:08;;;;;;;10.18;2.17;;;26.10;64.00;;;;;;5043301;28;20044;-75
2022/05/09 12:52:41;;;;;;;;;;;26.50;66.20;;;;;;5046644;28;20980;-74
2022/05/09 12:57:57;;;;;;;10.25;2.70;;;26.40;64.10;;;;;;5096046;28;20111;-77
2022/05/09 13:00:29;;;;;;;8.90;2.08;;;26.60;62.40;;;;;;5081229;28;20047;-75
2022/05/09 13:03:08;;;;;;;10.68;2.38;;;26.50;63.70;;;;;;5075606;28;20067;-75
2022/05/09 13:05:40;;;;;;;7.05;2.00;;;26.80;63.60;;;;;;5087248;28;20063;-77
2022/05/09 13:08:08;;;;;;;8.20;2.25;;;25.90;60.40;;;;;;5072013;28;20039;-75
2022/05/09 13:10:49;;;;;;;6.57;2.38;;;26.80;64.20;;;;;;5099436;28;20576;-74
2022/05/09 13:13:30;;;;;;;7.90;2.20;;;27.10;62.20;;;;;;5099592;28;20043;-75
2022/05/09 13:15:57;;;;;;;5.22;1.70;;;27.60;62.00;;;;;;5097915;28;20052;-75
2022/05/09 13:18:26;;;;;;;8.30;2.10;;;27.70;60.70;;;;;;5095464;28;20055;-75
2022/05/09 13:20:58;;;;;;;8.80;2.33;;;27.60;61.40;;;;;;5108959;27;20047;-75
2022/05/09 13:23:44;;;;;;;9.15;2.13;;;27.90;63.10;;;;;;5077470;28;20040;-76
2022/05/09 13:26:17;;;;;;;9.38;2.17;;;28.60;61.70;;;;;;5097156;28;20071;-75